createdAt,value
2018-09-30T00:01:22.597Z,72.90
2018-09-30T00:03:49.534Z,73.10
2018-09-30T00:06:16.561Z,73.50
2018-09-30T00:08:43.527Z,72.90
2018-09-30T00:11:10.488Z,72.90
2018-09-30T00:13:37.511Z,72.90
2018-09-30T00:16:04.474Z,73.20
2018-09-30T00:18:31.421Z,73.10
2018-09-30T00:20:58.418Z,71.70
2018-09-30T00:23:25.377Z,71.50
2018-09-30T00:26:14.815Z,72.60
2018-09-30T00:28:42.490Z,72.80
2018-09-30T00:31:09.591Z,74.50
2018-09-30T00:33:56.150Z,73.60
2018-09-30T00:36:23.126Z,73.90
2018-09-30T00:38:50.070Z,74.80
2018-09-30T00:41:17.038Z,75.20
2018-09-30T00:43:43.994Z,74.80
2018-09-30T00:46:10.941Z,74.90
2018-09-30T00:48:37.913Z,74.90
2018-09-30T00:51:04.909Z,75.20
2018-09-30T00:53:31.873Z,75.90
2018-09-30T00:55:59.033Z,75.40
2018-09-30T00:58:25.977Z,76.10
2018-09-30T01:00:53.033Z,76.80
2018-09-30T01:03:20.006Z,75.50
2018-09-30T01:05:46.977Z,75.40
2018-09-30T01:08:13.938Z,74.90
2018-09-30T01:10:40.998Z,73.60
2018-09-30T01:13:08.060Z,73.40
2018-09-30T01:15:35.002Z,73.40
2018-09-30T01:18:01.992Z,73.60
2018-09-30T01:20:28.954Z,72.90
2018-09-30T01:22:55.897Z,73.00
2018-09-30T01:25:22.841Z,73.30
2018-09-30T01:27:49.796Z,72.90
2018-09-30T01:30:17.449Z,73.60
2018-09-30T01:32:44.479Z,73.70
2018-09-30T01:35:11.387Z,74.30
2018-09-30T01:37:38.354Z,75.00
2018-09-30T01:40:05.423Z,74.80
2018-09-30T01:42:32.389Z,75.20
2018-09-30T01:44:59.359Z,76.00
2018-09-30T01:47:26.379Z,75.60
2018-09-30T01:49:53.346Z,74.20
2018-09-30T01:52:32.036Z,75.60
2018-09-30T01:54:58.980Z,75.30
2018-09-30T01:57:25.979Z,74.90
2018-09-30T01:59:52.962Z,75.60
2018-09-30T02:02:19.898Z,76.40
2018-09-30T02:04:46.862Z,77.30
2018-09-30T02:07:13.887Z,77.10
2018-09-30T02:09:40.842Z,77.10
2018-09-30T02:12:07.837Z,77.90
2018-09-30T02:14:34.823Z,78.80
2018-09-30T02:17:01.849Z,78.60
2018-09-30T02:19:28.829Z,77.90
2018-09-30T02:21:55.820Z,78.00
2018-09-30T02:24:22.774Z,76.80
2018-09-30T02:26:49.734Z,77.00
2018-09-30T02:29:16.726Z,76.20
2018-09-30T02:31:44.336Z,76.20
2018-09-30T02:34:11.306Z,76.60
2018-09-30T02:36:38.269Z,77.30
2018-09-30T02:39:05.357Z,77.90
2018-09-30T02:41:32.314Z,77.70
2018-09-30T02:43:59.290Z,79.30
2018-09-30T02:46:26.246Z,77.80
2018-09-30T02:48:53.193Z,76.70
2018-09-30T02:51:20.187Z,79.80
2018-09-30T02:53:47.128Z,78.90
2018-09-30T02:56:14.101Z,78.10
2018-09-30T02:58:41.173Z,78.70
2018-09-30T03:01:08.214Z,78.80
2018-09-30T03:03:35.157Z,78.90
2018-09-30T03:06:02.130Z,79.10
2018-09-30T03:08:34.814Z,79.10
2018-09-30T03:11:01.911Z,79.00
2018-09-30T03:13:28.887Z,78.40
2018-09-30T03:15:55.837Z,78.40
2018-09-30T03:18:22.799Z,78.50
2018-09-30T03:20:49.786Z,78.70
2018-09-30T03:23:16.736Z,79.10
2018-09-30T03:25:43.701Z,79.30
2018-09-30T03:28:10.689Z,79.20
2018-09-30T03:30:37.627Z,78.70
2018-09-30T03:33:05.075Z,79.00
2018-09-30T03:35:32.042Z,79.00
2018-09-30T03:37:59.016Z,79.70
2018-09-30T03:40:25.973Z,79.20
2018-09-30T03:42:52.934Z,79.40
2018-09-30T03:45:19.910Z,79.10
2018-09-30T03:47:46.865Z,78.70
2018-09-30T03:50:13.945Z,78.70
2018-09-30T03:52:41.002Z,78.20
2018-09-30T03:55:07.958Z,78.60
2018-09-30T03:57:34.936Z,78.60
2018-09-30T04:00:01.909Z,78.40
2018-09-30T04:02:28.875Z,78.00
2018-09-30T04:04:55.874Z,78.20
2018-09-30T04:07:22.831Z,77.50
2018-09-30T04:09:49.905Z,77.60
2018-09-30T04:12:16.765Z,77.70
2018-09-30T04:14:43.695Z,76.90
2018-09-30T04:17:10.721Z,76.00
2018-09-30T04:19:37.644Z,76.10
2018-09-30T04:22:04.610Z,76.30
2018-09-30T04:24:31.579Z,76.40
2018-09-30T04:26:58.565Z,76.20
2018-09-30T04:29:25.523Z,76.50
2018-09-30T04:31:52.633Z,77.60
2018-09-30T04:34:20.350Z,75.30
2018-09-30T04:36:47.305Z,76.20
2018-09-30T04:39:14.279Z,75.70
2018-09-30T04:41:41.260Z,75.90
2018-09-30T04:44:08.248Z,75.90
2018-09-30T04:46:35.195Z,75.30
2018-09-30T04:49:02.160Z,74.90
2018-09-30T04:51:29.114Z,74.80
2018-09-30T04:53:56.078Z,75.20
2018-09-30T04:56:23.054Z,75.30
2018-09-30T04:58:50.035Z,76.00
2018-09-30T05:01:17.030Z,76.00
2018-09-30T05:03:44.003Z,76.10
2018-09-30T05:06:10.962Z,76.00
2018-09-30T05:08:37.914Z,75.80
2018-09-30T05:11:05.022Z,77.20
2018-09-30T05:13:32.053Z,76.10
2018-09-30T05:15:59.031Z,76.00
2018-09-30T05:18:25.990Z,75.60
2018-09-30T05:20:52.992Z,75.10
2018-09-30T05:23:19.986Z,74.70
2018-09-30T05:25:47.051Z,74.80
2018-09-30T05:28:13.921Z,75.40
2018-09-30T05:30:40.869Z,75.40
2018-09-30T05:33:07.858Z,75.50
2018-09-30T05:35:35.126Z,76.00
2018-09-30T05:38:02.066Z,75.50
2018-09-30T05:40:29.041Z,75.10
2018-09-30T05:42:56.015Z,75.30
2018-09-30T05:45:22.960Z,72.50
2018-09-30T05:47:49.970Z,74.00
2018-09-30T05:50:16.893Z,74.00
2018-09-30T05:52:43.856Z,74.70
2018-09-30T05:55:10.826Z,74.40
2018-09-30T05:57:37.830Z,74.50
2018-09-30T06:00:04.890Z,75.00
2018-09-30T06:02:31.858Z,74.10
2018-09-30T06:04:58.809Z,74.20
2018-09-30T06:07:25.774Z,74.90
2018-09-30T06:09:52.745Z,75.20
2018-09-30T06:12:19.719Z,75.30
2018-09-30T06:14:46.666Z,75.70
2018-09-30T06:17:13.649Z,75.60
2018-09-30T06:19:40.590Z,75.40
2018-09-30T06:22:07.566Z,74.90
2018-09-30T06:24:34.535Z,74.60
2018-09-30T06:27:01.466Z,74.30
2018-09-30T06:29:28.463Z,74.00
2018-09-30T06:31:55.480Z,73.80
2018-09-30T06:34:22.406Z,73.00
2018-09-30T06:36:50.049Z,73.30
2018-09-30T06:39:17.022Z,73.20
2018-09-30T06:41:43.958Z,72.40
2018-09-30T06:44:10.930Z,71.90
2018-09-30T06:46:37.885Z,71.20
2018-09-30T06:49:04.844Z,70.60
2018-09-30T06:51:31.844Z,69.80
2018-09-30T06:53:58.839Z,68.80
2018-09-30T06:56:25.793Z,67.80
2018-09-30T06:58:52.772Z,67.20
2018-09-30T07:01:19.767Z,65.90
2018-09-30T07:03:46.737Z,66.90
2018-09-30T07:06:13.697Z,65.80
2018-09-30T07:08:40.714Z,64.60
2018-09-30T07:11:07.697Z,64.00
2018-09-30T07:13:34.657Z,63.40
2018-09-30T07:16:01.734Z,63.90
2018-09-30T07:18:28.737Z,62.80
2018-09-30T07:20:55.703Z,62.70
2018-09-30T07:23:22.669Z,62.10
2018-09-30T07:25:49.629Z,60.40
2018-09-30T07:28:16.578Z,59.80
2018-09-30T07:30:43.586Z,59.90
2018-09-30T07:33:10.542Z,59.80
2018-09-30T07:35:37.512Z,58.90
2018-09-30T07:38:04.953Z,58.60
2018-09-30T07:40:31.906Z,58.10
2018-09-30T07:42:58.874Z,57.80
2018-09-30T07:45:25.856Z,57.60
2018-09-30T07:47:52.905Z,57.00
2018-09-30T07:50:19.866Z,56.60
2018-09-30T07:52:47.034Z,56.60
2018-09-30T07:55:13.980Z,56.60
2018-09-30T07:57:41.057Z,56.60
2018-09-30T08:00:08.658Z,55.40
2018-09-30T08:02:35.627Z,55.70
2018-09-30T08:05:02.626Z,55.40
2018-09-30T08:07:29.598Z,54.30
2018-09-30T08:09:56.573Z,54.50
2018-09-30T08:12:23.593Z,54.70
2018-09-30T08:14:50.592Z,53.80
2018-09-30T08:17:17.538Z,53.70
2018-09-30T08:19:44.481Z,53.80
2018-09-30T08:22:11.458Z,53.00
2018-09-30T08:24:38.505Z,52.90
2018-09-30T08:27:05.419Z,52.80
2018-09-30T08:29:32.389Z,52.90
2018-09-30T08:31:59.351Z,52.50
2018-09-30T08:34:26.298Z,52.60
2018-09-30T08:36:53.266Z,52.50
2018-09-30T08:39:20.877Z,51.40
2018-09-30T08:41:47.832Z,51.60
2018-09-30T08:44:15.023Z,51.40
2018-09-30T08:46:41.941Z,50.70
2018-09-30T08:49:10.787Z,50.30
2018-09-30T08:51:37.485Z,50.40
2018-09-30T08:54:04.870Z,50.40
2018-09-30T08:56:31.835Z,49.90
2018-09-30T08:58:58.851Z,49.50
2018-09-30T09:01:25.867Z,48.00
2018-09-30T09:03:52.834Z,47.10
2018-09-30T09:06:20.298Z,41.00
2018-09-30T09:08:47.253Z,31.40
2018-09-30T09:11:14.571Z,27.50
2018-09-30T09:13:41.529Z,25.80
2018-09-30T09:16:08.489Z,25.00
2018-09-30T09:18:35.451Z,24.00
2018-09-30T09:21:02.434Z,24.60
2018-09-30T09:23:29.418Z,24.20
2018-09-30T09:25:57.011Z,24.70
2018-09-30T09:28:24.003Z,24.70
2018-09-30T09:30:50.970Z,23.70
2018-09-30T09:33:17.928Z,23.10
2018-09-30T09:35:46.150Z,23.80
2018-09-30T09:38:13.114Z,24.50
2018-09-30T09:40:40.546Z,24.10
2018-09-30T09:43:07.522Z,24.40
2018-09-30T09:45:34.485Z,24.10
2018-09-30T09:48:01.448Z,23.70
2018-09-30T09:50:28.437Z,24.10
2018-09-30T09:52:55.409Z,24.10
2018-09-30T09:55:22.404Z,24.10
2018-09-30T10:00:22.234Z,23.80
2018-09-30T10:02:49.207Z,24.10
2018-09-30T10:05:16.235Z,24.40
2018-09-30T10:07:43.162Z,24.80
2018-09-30T10:10:10.110Z,24.60
2018-09-30T10:12:37.099Z,24.40
2018-09-30T10:15:04.459Z,26.10
2018-09-30T10:17:31.874Z,27.30
2018-09-30T10:19:58.793Z,27.60
2018-09-30T10:22:25.794Z,28.50
2018-09-30T10:24:52.766Z,28.20
2018-09-30T10:27:19.758Z,27.90
2018-09-30T10:29:46.711Z,28.60
2018-09-30T10:32:13.666Z,29.10
2018-09-30T10:34:40.723Z,30.60
2018-09-30T10:37:07.702Z,29.80
2018-09-30T10:39:34.650Z,29.70
2018-09-30T10:42:02.353Z,29.20
2018-09-30T10:44:29.322Z,29.50
2018-09-30T10:46:56.290Z,30.00
2018-09-30T10:49:23.262Z,30.50
2018-09-30T10:51:50.219Z,30.20
2018-09-30T10:54:17.455Z,30.70
2018-09-30T10:56:44.524Z,31.50
2018-09-30T10:59:11.479Z,30.80
2018-09-30T11:01:38.579Z,30.30
2018-09-30T11:04:05.622Z,30.50
2018-09-30T11:06:32.570Z,30.80
2018-09-30T11:08:59.570Z,31.00
2018-09-30T11:11:26.567Z,29.40
2018-09-30T11:13:53.570Z,29.80
2018-09-30T11:16:20.583Z,30.30
2018-09-30T11:18:47.571Z,29.50
2018-09-30T11:21:14.557Z,29.70
2018-09-30T11:23:41.525Z,29.00
2018-09-30T11:26:08.511Z,28.40
2018-09-30T11:28:35.492Z,28.80
2018-09-30T11:31:02.465Z,29.50
2018-09-30T11:33:29.615Z,29.20
2018-09-30T11:35:56.594Z,30.70
2018-09-30T11:38:23.564Z,29.80
2018-09-30T11:40:50.557Z,31.00
2018-09-30T11:43:17.890Z,30.00
2018-09-30T11:45:44.855Z,29.50
2018-09-30T11:48:11.835Z,29.90
2018-09-30T11:50:38.794Z,30.20
2018-09-30T11:53:05.747Z,30.50
2018-09-30T11:55:32.726Z,30.90
2018-09-30T11:57:59.726Z,29.80
2018-09-30T12:00:26.709Z,30.00
2018-09-30T12:02:53.705Z,28.80
2018-09-30T12:05:20.656Z,31.60
2018-09-30T12:07:47.630Z,30.80
2018-09-30T12:10:14.628Z,30.90
2018-09-30T12:12:41.605Z,30.50
2018-09-30T12:15:08.537Z,30.20
2018-09-30T12:17:35.501Z,31.10
2018-09-30T12:20:02.457Z,32.10
2018-09-30T12:22:29.427Z,31.60
2018-09-30T12:24:56.416Z,30.30
2018-09-30T12:27:23.414Z,32.20
2018-09-30T12:29:50.394Z,31.40
2018-09-30T12:32:17.390Z,31.00
2018-09-30T12:34:44.409Z,31.30
2018-09-30T12:37:11.367Z,33.20
2018-09-30T12:39:38.356Z,33.20
2018-09-30T12:42:05.347Z,32.90
2018-09-30T12:44:32.670Z,32.60
2018-09-30T12:46:59.661Z,32.60
2018-09-30T12:49:26.629Z,33.30
2018-09-30T12:51:53.590Z,33.40
2018-09-30T12:54:20.562Z,33.70
2018-09-30T12:56:47.509Z,33.80
2018-09-30T12:59:14.485Z,33.20
2018-09-30T13:01:41.473Z,32.40
2018-09-30T13:04:08.438Z,34.40
2018-09-30T13:06:35.431Z,34.80
2018-09-30T13:09:03.111Z,34.80
2018-09-30T13:11:30.070Z,35.40
2018-09-30T13:13:57.046Z,35.60
2018-09-30T13:16:24.042Z,34.60
2018-09-30T13:18:51.018Z,35.10
2018-09-30T13:21:18.075Z,36.50
2018-09-30T13:23:45.082Z,35.90
2018-09-30T13:26:12.147Z,36.60
2018-09-30T13:28:39.097Z,37.50
2018-09-30T13:31:07.170Z,38.40
2018-09-30T13:33:34.335Z,37.90
2018-09-30T13:36:01.262Z,38.70
2018-09-30T13:38:28.254Z,38.40
2018-09-30T13:40:55.410Z,37.40
2018-09-30T13:43:22.227Z,37.80
2018-09-30T13:45:49.376Z,38.00
2018-09-30T13:48:16.347Z,37.90
2018-09-30T13:50:43.317Z,38.70
2018-09-30T13:53:10.329Z,39.40
2018-09-30T13:55:37.305Z,39.20
2018-09-30T13:58:04.289Z,39.60
2018-09-30T14:00:31.316Z,39.90
2018-09-30T14:02:58.294Z,39.70
2018-09-30T14:05:25.326Z,39.30
2018-09-30T14:07:52.337Z,40.10
2018-09-30T14:10:19.583Z,39.70
2018-09-30T14:12:46.590Z,40.20
2018-09-30T14:15:13.614Z,40.60
2018-09-30T14:17:40.567Z,40.80
2018-09-30T14:20:07.530Z,39.80
2018-09-30T14:22:34.501Z,41.60
2018-09-30T14:25:01.472Z,42.20
2018-09-30T14:27:28.679Z,41.40
2018-09-30T14:29:55.755Z,41.60
2018-09-30T14:32:22.706Z,41.60
2018-09-30T14:34:49.670Z,41.20
2018-09-30T14:37:16.670Z,42.10
2018-09-30T14:39:43.612Z,42.30
2018-09-30T14:42:10.601Z,41.90
2018-09-30T14:44:37.573Z,42.20
2018-09-30T14:47:05.184Z,41.70
2018-09-30T14:49:32.289Z,41.40
2018-09-30T14:51:59.284Z,41.00
2018-09-30T14:54:26.325Z,41.30
2018-09-30T14:56:53.182Z,41.90
2018-09-30T14:59:20.225Z,42.00
2018-09-30T15:01:47.206Z,41.60
2018-09-30T15:04:14.147Z,42.10
2018-09-30T15:06:41.122Z,42.70
2018-09-30T15:09:08.885Z,42.40
2018-09-30T15:11:35.895Z,42.60
2018-09-30T15:14:02.907Z,42.80
2018-09-30T15:16:29.861Z,42.40
2018-09-30T15:18:56.810Z,42.80
2018-09-30T15:21:23.782Z,41.20
2018-09-30T15:23:50.721Z,43.50
2018-09-30T15:26:17.687Z,44.10
2018-09-30T15:28:44.849Z,43.60
2018-09-30T15:31:11.808Z,43.80
2018-09-30T15:33:39.082Z,44.30
2018-09-30T15:36:06.081Z,44.40
2018-09-30T15:38:33.098Z,44.50
2018-09-30T15:41:00.076Z,44.80
2018-09-30T15:43:27.103Z,44.90
2018-09-30T15:45:54.190Z,45.00
2018-09-30T15:48:21.562Z,44.70
2018-09-30T15:50:48.557Z,45.50
2018-09-30T15:53:16.009Z,45.60
2018-09-30T15:55:42.974Z,45.30
2018-09-30T15:58:09.971Z,45.50
2018-09-30T16:00:36.922Z,45.50
2018-09-30T16:03:03.893Z,46.10
2018-09-30T16:05:30.863Z,46.00
2018-09-30T16:07:57.841Z,45.80
2018-09-30T16:10:24.796Z,46.10
2018-09-30T16:12:52.148Z,46.40
2018-09-30T16:15:19.109Z,46.90
2018-09-30T16:17:46.099Z,46.90
2018-09-30T16:20:13.225Z,46.40
2018-09-30T16:22:40.200Z,46.40
2018-09-30T16:25:07.162Z,46.60
2018-09-30T16:27:34.187Z,47.10
2018-09-30T16:30:01.218Z,45.10
2018-09-30T16:32:28.330Z,47.60
2018-09-30T16:34:55.312Z,48.10
2018-09-30T16:37:22.295Z,48.70
2018-09-30T16:39:49.352Z,49.00
2018-09-30T16:42:16.332Z,48.90
2018-09-30T16:44:43.322Z,50.10
2018-09-30T16:47:10.330Z,49.70
2018-09-30T16:49:37.613Z,50.60
2018-09-30T16:52:04.562Z,50.70
2018-09-30T16:54:31.529Z,50.70
2018-09-30T16:56:58.568Z,51.30
2018-09-30T16:59:25.524Z,51.80
2018-09-30T17:01:52.550Z,52.80
2018-09-30T17:04:19.550Z,52.60
2018-09-30T17:06:46.597Z,53.10
2018-09-30T17:09:13.542Z,53.10
2018-09-30T17:11:40.567Z,53.90
2018-09-30T17:14:07.576Z,53.20
2018-09-30T17:16:34.621Z,53.20
2018-09-30T17:19:02.027Z,53.70
2018-09-30T17:21:29.043Z,53.00
2018-09-30T17:23:56.127Z,53.80
2018-09-30T17:26:23.086Z,54.70
2018-09-30T17:28:50.065Z,54.30
2018-09-30T17:31:17.095Z,54.50
2018-09-30T17:33:44.049Z,55.10
2018-09-30T17:36:10.996Z,55.30
2018-09-30T17:38:37.982Z,55.20
2018-09-30T17:41:05.013Z,55.70
2018-09-30T17:43:32.086Z,55.20
2018-09-30T17:45:59.046Z,55.70
2018-09-30T17:48:26.043Z,55.80
2018-09-30T17:50:54.532Z,56.00
2018-09-30T17:53:21.509Z,56.10
2018-09-30T17:55:48.515Z,56.30
2018-09-30T17:58:15.483Z,56.60
2018-09-30T18:00:42.441Z,56.60
2018-09-30T18:03:09.437Z,56.40
2018-09-30T18:05:36.456Z,56.30
2018-09-30T18:08:03.467Z,57.10
2018-09-30T18:10:30.497Z,57.80
2018-09-30T18:12:57.537Z,58.00
2018-09-30T18:15:24.579Z,58.70
2018-09-30T18:17:51.559Z,58.70
2018-09-30T18:20:18.510Z,58.30
2018-09-30T18:22:45.513Z,58.30
2018-09-30T18:25:12.562Z,57.70
2018-09-30T18:27:39.573Z,57.80
2018-09-30T18:30:06.781Z,58.10
2018-09-30T18:32:33.770Z,58.30
2018-09-30T18:35:00.721Z,59.00
2018-09-30T18:37:27.690Z,59.60
2018-09-30T18:39:54.775Z,59.40
2018-09-30T18:42:21.721Z,59.00
2018-09-30T18:44:48.686Z,59.60
2018-09-30T18:47:15.674Z,60.60
2018-09-30T18:49:42.642Z,60.20
2018-09-30T18:52:10.010Z,59.90
2018-09-30T18:54:36.977Z,59.90
2018-09-30T18:57:03.946Z,60.40
2018-09-30T18:59:30.909Z,60.10
2018-09-30T19:01:57.875Z,60.30
2018-09-30T19:04:24.845Z,60.30
2018-09-30T19:06:51.822Z,60.80
2018-09-30T19:09:18.805Z,61.10
2018-09-30T19:11:45.764Z,61.30
2018-09-30T19:14:12.725Z,62.30
2018-09-30T19:16:39.699Z,62.90
2018-09-30T19:19:06.901Z,63.60
2018-09-30T19:21:33.957Z,66.50
2018-09-30T19:24:00.924Z,65.20
2018-09-30T19:26:27.887Z,65.30
2018-09-30T19:28:54.842Z,66.00
2018-09-30T19:31:23.653Z,67.60
2018-09-30T19:33:50.580Z,67.50
2018-09-30T19:36:17.622Z,67.20
2018-09-30T19:38:44.551Z,67.40
2018-09-30T19:41:11.502Z,67.90
2018-09-30T19:43:38.467Z,67.50
2018-09-30T19:46:05.805Z,67.40
2018-09-30T19:48:32.770Z,67.70
2018-09-30T19:50:59.723Z,68.00
2018-09-30T19:53:27.207Z,68.20
2018-09-30T19:55:54.177Z,69.60
2018-09-30T19:58:21.131Z,67.40
2018-09-30T20:00:48.133Z,69.20
2018-09-30T20:03:15.055Z,69.50
2018-09-30T20:05:42.032Z,69.70
2018-09-30T20:08:09.082Z,69.70
2018-09-30T20:10:36.100Z,69.80
2018-09-30T20:13:03.004Z,69.80
2018-09-30T20:15:30.025Z,70.20
2018-09-30T20:17:56.979Z,71.50
2018-09-30T20:20:23.975Z,70.40
2018-09-30T20:22:50.981Z,70.70
2018-09-30T20:25:17.926Z,70.80
2018-09-30T20:27:44.896Z,70.90
2018-09-30T20:30:11.870Z,71.40
2018-09-30T20:32:38.822Z,71.40
2018-09-30T20:35:05.906Z,71.40
2018-09-30T20:37:32.888Z,71.60
2018-09-30T20:39:59.889Z,71.50
2018-09-30T20:42:26.854Z,71.80
2018-09-30T20:44:53.806Z,72.00
2018-09-30T20:47:20.758Z,72.40
2018-09-30T20:49:47.723Z,73.00
2018-09-30T20:52:15.191Z,73.10
2018-09-30T20:54:42.521Z,73.50
2018-09-30T20:57:09.499Z,74.70
2018-09-30T20:59:36.505Z,74.30
2018-09-30T21:02:03.471Z,73.60
2018-09-30T21:04:30.478Z,73.40
2018-09-30T21:06:57.449Z,73.50
2018-09-30T21:09:24.486Z,73.50
2018-09-30T21:11:51.442Z,73.90
2018-09-30T21:14:18.406Z,74.30
2018-09-30T21:16:45.358Z,74.90
2018-09-30T21:19:12.313Z,74.60
2018-09-30T21:21:39.293Z,75.40
2018-09-30T21:24:06.278Z,75.40
2018-09-30T21:26:33.241Z,75.20
2018-09-30T21:29:00.218Z,75.00
2018-09-30T21:31:27.213Z,75.50
2018-09-30T21:33:54.225Z,75.00
2018-09-30T21:36:21.200Z,76.80
2018-09-30T21:38:48.151Z,76.50
2018-09-30T21:41:15.158Z,76.40
2018-09-30T21:43:42.150Z,76.50
2018-09-30T21:46:09.097Z,74.90
2018-09-30T21:48:36.166Z,76.50
2018-09-30T21:51:03.101Z,76.30
2018-09-30T21:53:30.090Z,76.90
2018-09-30T21:55:57.364Z,76.90
2018-09-30T21:58:24.387Z,77.40
2018-09-30T22:01:00.474Z,76.70
2018-09-30T22:03:27.969Z,76.60
2018-09-30T22:05:54.942Z,76.40
2018-09-30T22:08:21.897Z,76.30
2018-09-30T22:10:48.874Z,76.00
2018-09-30T22:13:15.843Z,76.80
2018-09-30T22:15:48.923Z,77.60
2018-09-30T22:18:17.470Z,78.00
2018-09-30T22:20:44.410Z,77.30
2018-09-30T22:23:11.421Z,77.70
2018-09-30T22:25:38.462Z,78.30
2018-09-30T22:28:05.557Z,78.10
2018-09-30T22:30:32.875Z,77.60
2018-09-30T22:32:59.876Z,77.40
2018-09-30T22:35:26.844Z,77.30
2018-09-30T22:37:53.802Z,77.10
2018-09-30T22:40:20.785Z,76.00
2018-09-30T22:42:47.752Z,77.70
2018-09-30T22:45:14.710Z,77.80
2018-09-30T22:47:41.787Z,77.60
2018-09-30T22:50:08.756Z,78.00
2018-09-30T22:52:35.813Z,78.20
2018-09-30T22:55:03.020Z,79.10
2018-09-30T22:57:30.590Z,79.60
2018-09-30T22:59:57.556Z,79.90
2018-09-30T23:02:24.530Z,79.80
2018-09-30T23:04:51.510Z,79.60
2018-09-30T23:07:18.474Z,78.70
2018-09-30T23:09:45.442Z,78.50
2018-09-30T23:12:12.419Z,78.20
2018-09-30T23:14:39.386Z,78.90
2018-09-30T23:17:06.840Z,80.20
2018-09-30T23:19:33.826Z,80.30
2018-09-30T23:22:01.862Z,79.80
2018-09-30T23:24:28.837Z,79.30
2018-09-30T23:26:55.837Z,79.10
2018-09-30T23:29:22.807Z,79.70
2018-09-30T23:31:49.794Z,80.60
2018-09-30T23:34:16.839Z,80.30
2018-09-30T23:36:43.829Z,80.60
2018-09-30T23:39:12.191Z,81.20
2018-09-30T23:41:41.658Z,80.00
2018-09-30T23:44:09.178Z,80.40
2018-09-30T23:46:36.138Z,80.00
2018-09-30T23:49:03.356Z,80.00
2018-09-30T23:51:30.355Z,79.50
2018-09-30T23:53:57.329Z,79.40
2018-09-30T23:56:50.858Z,80.30
2018-09-30T23:59:18.174Z,80.20
